createdAt,value
2022-12-23T00:01:04.347Z,97994.47
2022-12-23T00:04:16.267Z,98000.86
2022-12-23T00:07:28.428Z,98005.03
2022-12-23T00:10:42.041Z,98003.92
2022-12-23T00:14:09.353Z,98001.00
2022-12-23T00:17:23.415Z,98008.92
2022-12-23T00:20:35.750Z,98021.73
2022-12-23T00:23:50.484Z,98010.59
2022-12-23T00:27:02.456Z,98012.97
2022-12-23T00:30:17.468Z,98021.99
2022-12-23T00:33:34.296Z,98026.14
2022-12-23T00:36:46.473Z,98028.77
2022-12-23T00:40:12.965Z,98037.38
2022-12-23T00:43:25.157Z,98037.08
2022-12-23T00:46:38.062Z,98046.13
2022-12-23T00:49:50.084Z,98045.53
2022-12-23T00:53:02.638Z,98049.41
2022-12-23T00:56:15.176Z,98049.70
2022-12-23T00:59:27.507Z,98059.83
2022-12-23T01:02:54.287Z,98064.41
2022-12-23T01:06:08.003Z,98068.39
2022-12-23T01:09:20.623Z,98066.56
2022-12-23T01:12:32.643Z,98073.04
2022-12-23T01:15:44.764Z,98076.59
2022-12-23T01:18:58.790Z,98071.00
2022-12-23T01:22:11.335Z,98078.72
2022-12-23T01:25:23.841Z,98082.12
2022-12-23T01:28:38.753Z,98073.19
2022-12-23T01:31:52.656Z,98078.16
2022-12-23T01:35:04.876Z,98075.19
2022-12-23T01:38:18.478Z,98070.16
2022-12-23T01:41:49.376Z,98072.23
2022-12-23T01:45:05.291Z,98060.28
2022-12-23T01:48:22.066Z,98059.00
2022-12-23T01:51:36.429Z,98059.71
2022-12-23T01:54:50.025Z,98057.78
2022-12-23T01:58:17.026Z,98054.31
2022-12-23T02:01:44.793Z,98048.34
2022-12-23T02:04:58.400Z,98057.08
2022-12-23T02:08:25.155Z,98060.42
2022-12-23T02:11:56.296Z,98069.88
2022-12-23T02:15:46.636Z,98070.16
2022-12-23T02:19:20.670Z,98072.42
2022-12-23T02:22:55.378Z,98072.42
2022-12-23T02:26:27.888Z,98075.77
2022-12-23T02:30:28.017Z,98075.05
2022-12-23T02:33:53.933Z,98067.86
2022-12-23T02:37:11.730Z,98055.27
2022-12-23T02:40:31.002Z,98057.80
2022-12-23T02:43:49.963Z,98071.25
2022-12-23T02:47:07.341Z,98081.69
2022-12-23T02:50:24.777Z,98084.38
2022-12-23T02:53:42.113Z,98085.66
2022-12-23T02:56:57.296Z,98088.81
2022-12-23T03:00:11.490Z,98096.64
2022-12-23T03:03:23.545Z,98088.23
2022-12-23T03:06:39.897Z,98090.48
2022-12-23T03:09:59.163Z,98093.12
2022-12-23T03:13:19.065Z,98090.16
2022-12-23T03:16:36.272Z,98091.38
2022-12-23T03:19:50.574Z,98098.36
2022-12-23T03:23:10.381Z,98097.72
2022-12-23T03:26:26.224Z,98094.88
2022-12-23T03:29:43.762Z,98107.06
2022-12-23T03:33:00.363Z,98107.03
2022-12-23T03:36:17.459Z,98105.55
2022-12-23T03:39:30.403Z,98092.02
2022-12-23T03:42:46.711Z,98086.52
2022-12-23T03:46:03.831Z,98088.73
2022-12-23T03:49:20.509Z,98087.66
2022-12-23T03:52:37.568Z,98079.75
2022-12-23T03:55:51.169Z,98089.91
2022-12-23T03:59:10.221Z,98087.28
2022-12-23T04:02:29.203Z,98090.02
2022-12-23T04:05:45.035Z,98095.39
2022-12-23T04:08:58.516Z,98102.14
2022-12-23T04:12:13.295Z,98111.73
2022-12-23T04:15:30.410Z,98108.52
2022-12-23T04:18:42.459Z,98099.57
2022-12-23T04:21:54.708Z,98096.70
2022-12-23T04:25:06.776Z,98097.66
2022-12-23T04:28:21.244Z,98101.03
2022-12-23T04:31:34.420Z,98095.52
2022-12-23T04:34:46.483Z,98098.14
2022-12-23T04:37:58.668Z,98098.86
2022-12-23T04:41:10.802Z,98102.46
2022-12-23T04:44:22.847Z,98099.12
2022-12-23T04:47:35.599Z,98097.33
2022-12-23T04:50:48.679Z,98101.16
2022-12-23T04:54:01.527Z,98094.34
2022-12-23T04:57:13.925Z,98097.11
2022-12-23T05:00:27.605Z,98094.09
2022-12-23T05:03:40.380Z,98101.27
2022-12-23T05:06:52.534Z,98092.08
2022-12-23T05:10:05.253Z,98093.86
2022-12-23T05:13:17.546Z,98082.05
2022-12-23T05:16:31.438Z,98085.06
2022-12-23T05:19:45.704Z,98082.53
2022-12-23T05:22:57.908Z,98082.20
2022-12-23T05:26:10.377Z,98073.25
2022-12-23T05:29:24.079Z,98067.41
2022-12-23T05:32:36.280Z,98057.47
2022-12-23T05:35:49.538Z,98066.45
2022-12-23T05:39:05.167Z,98068.50
2022-12-23T05:42:19.484Z,98069.32
2022-12-23T05:45:32.859Z,98066.70
2022-12-23T05:48:45.390Z,98062.27
2022-12-23T05:51:57.528Z,98063.33
2022-12-23T05:55:11.662Z,98058.08
2022-12-23T05:58:24.338Z,98065.96
2022-12-23T06:01:36.607Z,98073.50
2022-12-23T06:04:49.807Z,98076.09
2022-12-23T06:08:02.020Z,98079.09
2022-12-23T06:11:14.657Z,98075.50
2022-12-23T06:14:29.038Z,98072.63
2022-12-23T06:17:42.607Z,98081.94
2022-12-23T06:20:56.432Z,98089.81
2022-12-23T06:24:09.223Z,98084.81
2022-12-23T06:27:21.716Z,98084.44
2022-12-23T06:30:34.350Z,98079.06
2022-12-23T06:33:47.905Z,98079.56
2022-12-23T06:37:00.213Z,98082.41
2022-12-23T06:40:16.303Z,98092.78
2022-12-23T06:43:29.685Z,98092.44
2022-12-23T06:46:41.924Z,98089.59
2022-12-23T06:49:54.941Z,98087.69
2022-12-23T06:53:07.270Z,98090.19
2022-12-23T06:56:20.604Z,98084.69
2022-12-23T06:59:33.790Z,98086.50
2022-12-23T07:02:46.619Z,98080.88
2022-12-23T07:05:59.775Z,98082.56
2022-12-23T07:09:12.318Z,98079.59
2022-12-23T07:12:24.779Z,98086.75
2022-12-23T07:15:37.455Z,98089.25
2022-12-23T07:18:51.461Z,98095.09
2022-12-23T07:22:05.460Z,98083.53
2022-12-23T07:25:18.725Z,98084.13
2022-12-23T07:28:34.350Z,98069.06
2022-12-23T07:31:49.543Z,98074.09
2022-12-23T07:35:02.008Z,98067.16
2022-12-23T07:38:14.998Z,98061.42
2022-12-23T07:41:27.407Z,98063.11
2022-12-23T07:44:39.522Z,98071.33
2022-12-23T07:47:53.184Z,98074.92
2022-12-23T07:51:10.024Z,98074.80
2022-12-23T07:54:22.937Z,98070.02
2022-12-23T08:18:03.953Z,98085.92
2022-12-23T08:21:20.161Z,98080.53
2022-12-23T08:28:53.615Z,98070.00
2022-12-23T08:32:06.278Z,98075.27
2022-12-23T08:35:19.008Z,98064.94
2022-12-23T08:38:31.270Z,98067.56
2022-12-23T08:41:46.662Z,98068.55
2022-12-23T08:44:58.779Z,98074.38
2022-12-23T08:48:11.451Z,98072.34
2022-12-23T08:51:26.468Z,98067.08
2022-12-23T08:54:38.639Z,98050.36
2022-12-23T08:57:51.097Z,98050.09
2022-12-23T09:01:05.703Z,98044.81
2022-12-23T09:04:18.289Z,98049.52
2022-12-23T09:07:31.958Z,98042.31
2022-12-23T09:10:48.794Z,98044.16
2022-12-23T09:14:02.294Z,98039.75
2022-12-23T09:17:14.759Z,98030.36
2022-12-23T09:20:27.108Z,98029.98
2022-12-23T09:23:39.997Z,98023.55
2022-12-23T09:26:52.443Z,98008.19
2022-12-23T09:30:04.481Z,98000.37
2022-12-23T09:33:17.212Z,98007.33
2022-12-23T09:36:30.073Z,98003.75
2022-12-23T09:39:41.988Z,97997.95
2022-12-23T09:43:08.843Z,97999.95
2022-12-23T09:46:25.537Z,97997.43
2022-12-23T09:49:38.547Z,97996.94
2022-12-23T09:52:57.305Z,97996.59
2022-12-23T09:56:16.575Z,98007.65
2022-12-23T09:59:44.427Z,97995.39
2022-12-23T10:03:12.861Z,97996.75
2022-12-23T10:06:29.783Z,97996.33
2022-12-23T10:09:45.711Z,97973.81
2022-12-23T10:12:59.731Z,97969.63
2022-12-23T10:16:17.834Z,97957.41
2022-12-23T10:19:34.911Z,97962.67
2022-12-23T10:22:47.829Z,97956.64
2022-12-23T10:26:00.693Z,97947.52
2022-12-23T10:29:22.025Z,97948.40
2022-12-23T10:32:40.437Z,97934.55
2022-12-23T10:36:02.019Z,97929.48
2022-12-23T10:39:21.761Z,97935.05
2022-12-23T10:42:40.093Z,97928.47
2022-12-23T10:45:58.971Z,97923.13
2022-12-23T10:49:18.233Z,97921.30
2022-12-23T10:52:40.835Z,97925.58
2022-12-23T10:55:55.643Z,97918.88
2022-12-23T10:59:08.668Z,97918.98
2022-12-23T11:02:47.069Z,97914.11
2022-12-23T11:06:04.963Z,97917.44
2022-12-23T11:09:23.865Z,97920.89
2022-12-23T11:12:47.405Z,97921.73
2022-12-23T11:16:01.868Z,97914.80
2022-12-23T11:19:20.118Z,97916.02
2022-12-23T11:22:32.916Z,97912.22
2022-12-23T11:25:47.529Z,97913.22
2022-12-23T11:29:07.349Z,97909.89
2022-12-23T11:32:27.212Z,97910.73
2022-12-23T11:35:42.328Z,97912.78
2022-12-23T11:39:04.044Z,97910.19
2022-12-23T11:42:23.175Z,97903.90
2022-12-23T11:45:41.139Z,97905.95
2022-12-23T11:48:54.996Z,97901.50
2022-12-23T11:52:19.617Z,97898.55
2022-12-23T11:55:35.620Z,97893.81
2022-12-23T11:58:55.246Z,97889.34
2022-12-23T12:02:09.905Z,97895.78
2022-12-23T12:05:32.196Z,97903.71
2022-12-23T12:08:46.773Z,97904.67
2022-12-23T12:12:02.937Z,97901.06
2022-12-23T12:15:29.427Z,97900.75
2022-12-23T12:18:42.072Z,97901.16
2022-12-23T12:21:56.396Z,97900.99
2022-12-23T12:25:27.417Z,97904.88
2022-12-23T12:28:44.821Z,97908.89
2022-12-23T12:32:01.289Z,97902.32
2022-12-23T12:35:19.355Z,97905.48
2022-12-23T12:38:36.364Z,97903.52
2022-12-23T12:41:53.238Z,97898.67
2022-12-23T12:45:13.696Z,97907.77
2022-12-23T12:48:39.333Z,97898.31
2022-12-23T12:51:58.321Z,97900.27
2022-12-23T12:55:18.102Z,97900.27
2022-12-23T12:58:31.208Z,97894.30
2022-12-23T13:01:55.592Z,97895.14
2022-12-23T13:05:40.628Z,97903.59
2022-12-23T13:09:04.164Z,97894.02
2022-12-23T13:12:23.981Z,97902.08
2022-12-23T13:15:41.846Z,97897.94
2022-12-23T13:19:00.048Z,97898.31
2022-12-23T13:22:17.473Z,97904.72
2022-12-23T13:25:33.823Z,97909.89
2022-12-23T13:28:51.827Z,97903.92
2022-12-23T13:32:08.409Z,97908.20
2022-12-23T13:35:35.176Z,97910.02
2022-12-23T13:39:05.789Z,97916.83
2022-12-23T13:42:25.268Z,97915.70
2022-12-23T13:45:41.744Z,97918.19
2022-12-23T13:49:02.051Z,97919.84
2022-12-23T13:52:19.742Z,97921.52
2022-12-23T13:55:57.857Z,97917.06
2022-12-23T13:59:14.606Z,97929.45
2022-12-23T14:03:14.652Z,97926.81
2022-12-23T14:06:48.434Z,97932.10
2022-12-23T14:10:02.959Z,97934.91
2022-12-23T14:13:21.439Z,97940.36
2022-12-23T14:16:51.533Z,97943.28
2022-12-23T14:20:29.175Z,97939.95
2022-12-23T14:23:53.104Z,97951.66
2022-12-23T14:27:42.033Z,97954.73
2022-12-23T14:30:54.169Z,97962.11
2022-12-23T14:34:22.438Z,97959.09
2022-12-23T14:37:44.491Z,97969.82
2022-12-23T14:41:23.307Z,97961.79
2022-12-23T14:44:55.407Z,97965.50
2022-12-23T14:48:07.558Z,97969.19
2022-12-23T14:51:37.466Z,97977.58
2022-12-23T14:55:06.333Z,97977.99
2022-12-23T14:58:09.448Z,97976.88
2022-12-23T15:01:25.067Z,97983.97
2022-12-23T15:04:41.377Z,97983.85
2022-12-23T15:07:55.550Z,97988.68
2022-12-23T15:11:07.657Z,97983.97
2022-12-23T15:14:27.917Z,97983.81
2022-12-23T15:17:42.262Z,97977.84
2022-12-23T15:21:05.947Z,97978.27
2022-12-23T15:24:24.938Z,97985.23
2022-12-23T15:27:40.154Z,97976.61
2022-12-23T15:30:59.075Z,97978.27
2022-12-23T15:34:17.406Z,97983.70
2022-12-23T15:37:34.917Z,97972.44
2022-12-23T15:40:44.932Z,97971.45
2022-12-23T15:43:58.911Z,97970.64
2022-12-23T15:47:35.626Z,97974.39
2022-12-23T15:50:48.864Z,97963.14
2022-12-23T15:54:06.114Z,97973.16
2022-12-23T15:57:25.177Z,97977.06
2022-12-23T16:00:42.891Z,97972.05
2022-12-23T16:04:00.539Z,97972.05
2022-12-23T16:07:24.230Z,97969.41
2022-12-23T16:10:36.206Z,97975.69
2022-12-23T16:13:59.992Z,97969.70
2022-12-23T16:17:32.021Z,97967.33
2022-12-23T16:20:51.030Z,97967.64
2022-12-23T16:24:03.852Z,97970.55
2022-12-23T16:27:24.880Z,97977.38
2022-12-23T16:30:41.915Z,97976.95
2022-12-23T16:33:54.851Z,97982.95
2022-12-23T16:37:06.884Z,97987.95
2022-12-23T16:40:21.864Z,97997.10
2022-12-23T16:43:34.579Z,97997.79
2022-12-23T16:46:51.709Z,98003.05
2022-12-23T16:50:02.074Z,97989.97
2022-12-23T16:53:16.934Z,97985.53
2022-12-23T16:56:33.271Z,97987.33
2022-12-23T16:59:47.073Z,97982.05
2022-12-23T17:03:00.540Z,97993.70
2022-12-23T17:06:17.032Z,97991.04
2022-12-23T17:09:29.038Z,97981.03
2022-12-23T17:12:41.087Z,97977.28
2022-12-23T17:15:53.255Z,97967.97
2022-12-23T17:19:05.785Z,97967.27
2022-12-23T17:22:20.051Z,97966.02
2022-12-23T17:25:32.693Z,97956.98
2022-12-23T17:28:44.786Z,97959.20
2022-12-23T17:31:58.447Z,97956.70
2022-12-23T17:35:11.789Z,97968.20
2022-12-23T17:38:24.693Z,97970.83
2022-12-23T17:41:38.939Z,97966.41
2022-12-23T17:44:51.447Z,97974.66
2022-12-23T17:48:03.624Z,97984.50
2022-12-23T17:51:20.254Z,97981.83
2022-12-23T17:54:31.459Z,97987.58
2022-12-23T17:57:43.985Z,97973.67
2022-12-23T18:00:56.980Z,97985.75
2022-12-23T18:04:09.101Z,97989.84
2022-12-23T18:07:22.157Z,97994.02
2022-12-23T18:10:38.274Z,97982.98
2022-12-23T18:13:50.587Z,97986.59
2022-12-23T18:17:05.432Z,97991.80
2022-12-23T18:20:33.714Z,97989.47
2022-12-23T18:23:47.735Z,97986.65
2022-12-23T18:27:00.657Z,97992.48
2022-12-23T18:30:16.513Z,97995.44
2022-12-23T18:33:33.606Z,97994.78
2022-12-23T18:37:02.909Z,97997.32
2022-12-23T18:40:32.561Z,98002.91
2022-12-23T18:43:53.665Z,97999.08
2022-12-23T18:47:08.911Z,98002.77
2022-12-23T18:50:21.268Z,98001.95
2022-12-23T18:53:33.588Z,98003.35
2022-12-23T18:56:46.830Z,98000.86
2022-12-23T18:59:59.035Z,97999.63
2022-12-23T19:03:13.149Z,97999.48
2022-12-23T19:06:26.779Z,98008.65
2022-12-23T19:09:38.992Z,98013.53
2022-12-23T19:12:51.174Z,98014.93
2022-12-23T19:16:03.424Z,98012.05
2022-12-23T19:19:16.103Z,98019.50
2022-12-23T19:22:30.019Z,98019.48
2022-12-23T19:25:42.155Z,98021.38
2022-12-23T19:29:02.186Z,98028.27
2022-12-23T19:32:14.271Z,98022.44
2022-12-23T19:35:26.558Z,98019.31
2022-12-23T19:38:38.634Z,98021.52
2022-12-23T19:41:51.370Z,98029.25
2022-12-23T19:45:03.658Z,98021.44
2022-12-23T19:48:15.835Z,98015.00
2022-12-23T19:51:28.236Z,98008.60
2022-12-23T19:54:40.552Z,98015.66
2022-12-23T19:57:52.878Z,98021.91
2022-12-23T20:01:16.759Z,98028.58
2022-12-23T20:04:29.206Z,98027.03
2022-12-23T20:07:43.263Z,98035.88
2022-12-23T20:10:55.353Z,98028.69
2022-12-23T20:14:09.110Z,98027.73
2022-12-23T20:17:21.296Z,98022.47
2022-12-23T20:20:37.761Z,98031.32
2022-12-23T20:23:49.913Z,98018.43
2022-12-23T20:27:05.098Z,98022.72
2022-12-23T20:30:18.443Z,98024.07
2022-12-23T20:33:30.472Z,98019.65
2022-12-23T20:36:44.475Z,98024.64
2022-12-23T20:39:57.111Z,98017.72
2022-12-23T20:43:14.960Z,98009.36
2022-12-23T20:46:24.496Z,97997.69
2022-12-23T20:49:36.854Z,97991.58
2022-12-23T20:52:48.931Z,97992.42
2022-12-23T20:56:04.728Z,97997.41
2022-12-23T20:59:16.780Z,97992.16
2022-12-23T21:02:29.325Z,97978.80
2022-12-23T21:05:41.623Z,97972.73
2022-12-23T21:08:55.834Z,97978.80
2022-12-23T21:12:08.341Z,97987.05
2022-12-23T21:15:22.841Z,97989.48
2022-12-23T21:18:35.476Z,97984.45
2022-12-23T21:21:47.636Z,97977.34
2022-12-23T21:24:59.663Z,97978.22
2022-12-23T21:28:12.020Z,97974.30
2022-12-23T21:31:27.415Z,97964.63
2022-12-23T21:34:39.705Z,97966.41
2022-12-23T21:37:51.933Z,97959.94
2022-12-23T21:41:10.387Z,97951.34
2022-12-23T21:44:22.928Z,97942.41
2022-12-23T21:47:34.945Z,97943.48
2022-12-23T21:50:48.277Z,97938.94
2022-12-23T21:54:05.668Z,97933.81
2022-12-23T21:57:18.597Z,97943.48
2022-12-23T22:00:31.231Z,97943.39
2022-12-23T22:03:44.286Z,97938.23
2022-12-23T22:06:56.544Z,97931.45
2022-12-23T22:10:09.333Z,97935.66
2022-12-23T22:13:21.650Z,97934.31
2022-12-23T22:16:36.610Z,97935.16
2022-12-23T22:19:48.773Z,97937.45
2022-12-23T22:23:00.742Z,97930.67
2022-12-23T22:26:17.460Z,97936.73
2022-12-23T22:29:28.758Z,97929.25
2022-12-23T22:32:42.661Z,97927.63
2022-12-23T22:36:02.481Z,97928.12
2022-12-23T22:39:19.980Z,97936.23
2022-12-23T22:42:29.778Z,97933.03
2022-12-23T22:45:41.960Z,97931.47
2022-12-23T22:48:59.020Z,97935.92
2022-12-23T22:52:11.878Z,97938.64
2022-12-23T22:55:24.294Z,97934.23
2022-12-23T22:58:38.374Z,97923.72
2022-12-23T23:01:53.797Z,97921.36
2022-12-23T23:05:12.912Z,97917.63
2022-12-23T23:08:22.843Z,97914.90
2022-12-23T23:11:36.042Z,97913.56
2022-12-23T23:14:57.537Z,97919.31
2022-12-23T23:18:09.767Z,97909.03
2022-12-23T23:21:22.073Z,97901.94
2022-12-23T23:24:36.687Z,97902.05
2022-12-23T23:27:48.730Z,97901.58
2022-12-23T23:31:32.001Z,97888.64
2022-12-23T23:34:14.778Z,97897.50
2022-12-23T23:37:26.873Z,97887.94
2022-12-23T23:40:39.088Z,97880.75
2022-12-23T23:43:51.238Z,97891.41
2022-12-23T23:47:03.760Z,97896.53
2022-12-23T23:50:17.029Z,97892.31
2022-12-23T23:53:29.108Z,97890.39
2022-12-23T23:56:42.364Z,97904.88
2022-12-23T23:59:54.649Z,97896.53
